Time;durP1;ratioP1;P1;durP2;ratioP2;P2;SDS_P1;SDS_P2;PMS_P1;PMS_P2;Temp;Humidity;BMP_temperature;BMP_pressure;BME280_temperature;BME280_humidity;BME280_pressure;Samples;Min_cycle;Max_cycle;Signal;HPM_P1;HPM_P2
2022/03/10 00:02:12;;;;;;;83.07;17.10;;;;;;;;;;5093332;28;20299;-68
2022/03/10 00:04:40;;;;;;;87.55;19.48;;;;;;;;;;5093108;28;20204;-68
2022/03/10 00:07:08;;;;;;;100.32;23.20;;;;;;;;;;5092561;28;20231;-68
2022/03/10 00:09:35;;;;;;;92.93;19.98;;;;;;;;;;5093089;28;20299;-67
2022/03/10 00:12:03;;;;;;;86.05;17.05;;;;;;;;;;5093114;28;20232;-67
2022/03/10 00:14:30;;;;;;;85.10;18.55;;;;;;;;;;5093074;28;20211;-68
2022/03/10 00:16:57;;;;;;;88.60;18.50;;;;;;;;;;5092156;28;20307;-68
2022/03/10 00:19:24;;;;;;;89.10;20.55;;;;;;;;;;5092114;28;20204;-68
2022/03/10 00:21:53;;;;;;;94.32;21.77;;;;;;;;;;5093408;28;20294;-69
2022/03/10 00:24:20;;;;;;;95.15;23.23;;;;;;;;;;5092935;28;20200;-68
2022/03/10 00:26:47;;;;;;;92.07;22.02;;;;;;;;;;5092796;28;20231;-69
2022/03/10 00:29:14;;;;;;;92.65;21.13;;;;;;;;;;5091939;28;20573;-67
2022/03/10 00:31:42;;;;;;;88.90;18.55;;;;;;;;;;5092517;28;20669;-68
2022/03/10 00:34:09;;;;;;;90.43;19.30;;;;;;;;;;5092557;28;20212;-67
2022/03/10 00:36:36;;;;;;;88.03;19.80;;;;;;;;;;5092718;28;20314;-67
2022/03/10 00:39:05;;;;;;;97.43;21.90;;;;;;;;;;5092156;28;20286;-69
2022/03/10 00:41:33;;;;;;;92.38;21.40;;;;;;;;;;5092582;28;20589;-68
2022/03/10 00:44:00;;;;;;;92.53;20.50;;;;;;;;;;5092638;28;20204;-68
2022/03/10 00:46:27;;;;;;;89.43;19.65;;;;;;;;;;5092246;28;20311;-69
2022/03/10 00:48:54;;;;;;;97.15;19.27;;;;;;;;;;5091910;28;20346;-68
2022/03/10 00:51:21;;;;;;;92.80;18.20;;;;;;;;;;5092227;28;20224;-69
2022/03/10 00:53:48;;;;;;;93.30;18.48;;;;;;;;;;5092711;28;20206;-68
2022/03/10 00:56:17;;;;;;;86.75;18.98;;;;;;;;;;5092197;28;20665;-71
2022/03/10 00:58:44;;;;;;;88.18;16.20;;;;;;;;;;5091551;28;20227;-69
2022/03/10 01:01:11;;;;;;;91.28;19.58;;;;;;;;;;5092015;28;20653;-68
2022/03/10 01:03:38;;;;;;;83.60;18.88;;;;;;;;;;5092273;28;20632;-68
2022/03/10 01:06:06;;;;;;;86.63;18.10;;;;;;;;;;5092246;28;20312;-68
2022/03/10 01:08:33;;;;;;;90.45;18.38;;;;;;;;;;5091485;28;20208;-68
2022/03/10 01:11:00;;;;;;;88.72;18.13;;;;;;;;;;5091986;28;20254;-68
2022/03/10 01:13:28;;;;;;;82.47;17.73;;;;;;;;;;5091939;28;20235;-68
2022/03/10 01:15:55;;;;;;;91.80;19.27;;;;;;;;;;5091862;28;20730;-67
2022/03/10 01:18:22;;;;;;;86.53;16.92;;;;;;;;;;5091247;28;20240;-68
2022/03/10 01:20:50;;;;;;;87.50;19.63;;;;;;;;;;5092089;28;20287;-68
2022/03/10 01:23:17;;;;;;;89.32;19.95;;;;;;;;;;5092282;28;20231;-68
2022/03/10 01:25:44;;;;;;;83.07;17.45;;;;;;;;;;5091894;28;20600;-67
2022/03/10 01:28:11;;;;;;;90.53;19.42;;;;;;;;;;5090951;28;20306;-68
2022/03/10 01:30:39;;;;;;;86.45;18.67;;;;;;;;;;5095151;28;20206;-67
2022/03/10 01:33:07;;;;;;;85.15;20.60;;;;;;;;;;5096362;28;20208;-71
2022/03/10 01:35:34;;;;;;;86.75;18.60;;;;;;;;;;5096167;28;20319;-68
2022/03/10 01:38:01;;;;;;;88.72;18.45;;;;;;;;;;5095354;28;20577;-68
2022/03/10 01:40:28;;;;;;;89.00;19.30;;;;;;;;;;5096013;28;20203;-68
2022/03/10 01:42:56;;;;;;;90.82;20.45;;;;;;;;;;5095703;28;20644;-68
2022/03/10 01:45:23;;;;;;;88.43;19.00;;;;;;;;;;5095715;28;20231;-71
2022/03/10 01:47:51;;;;;;;86.65;18.25;;;;;;;;;;5095138;28;20325;-67
2022/03/10 01:50:19;;;;;;;112.72;28.33;;;;;;;;;;5095869;28;20204;-68
2022/03/10 01:52:47;;;;;;;106.38;24.90;;;;;;;;;;5095634;28;20227;-68
2022/03/10 01:55:14;;;;;;;88.43;18.33;;;;;;;;;;5095732;28;20219;-68
2022/03/10 01:57:42;;;;;;;86.68;16.75;;;;;;;;;;5095100;28;20203;-67
2022/03/10 02:00:10;;;;;;;86.80;18.15;;;;;;;;;;5095451;28;20215;-69
2022/03/10 02:02:37;;;;;;;79.80;17.50;;;;;;;;;;5095501;28;20200;-68
2022/03/10 02:05:06;;;;;;;84.70;19.02;;;;;;;;;;5095478;28;20605;-67
2022/03/10 02:10:18;;;;;;;84.25;16.52;;;;;;;;;;5095139;28;20624;-70
2022/03/10 02:12:45;;;;;;;82.88;15.98;;;;;;;;;;5095429;28;20263;-68
2022/03/10 02:17:57;;;;;;;81.25;15.95;;;;;;;;;;5094625;28;20199;-67
2022/03/10 02:20:26;;;;;;;88.07;18.30;;;;;;;;;;5095121;28;20214;-68
2022/03/10 02:22:55;;;;;;;84.07;15.45;;;;;;;;;;5095328;28;20201;-67
2022/03/10 02:25:23;;;;;;;85.63;16.40;;;;;;;;;;5095077;28;20274;-68
2022/03/10 02:27:51;;;;;;;79.80;15.82;;;;;;;;;;5094137;28;20211;-69
2022/03/10 02:30:19;;;;;;;82.82;15.13;;;;;;;;;;5095200;28;20216;-69
2022/03/10 02:32:46;;;;;;;84.82;16.65;;;;;;;;;;5094691;28;20224;-68
2022/03/10 02:35:13;;;;;;;84.80;17.70;;;;;;;;;;5094911;28;20226;-68
2022/03/10 02:37:41;;;;;;;80.00;16.27;;;;;;;;;;5094115;28;20201;-69
2022/03/10 02:40:10;;;;;;;86.13;17.05;;;;;;;;;;5094463;28;20200;-68
2022/03/10 02:42:38;;;;;;;84.78;15.80;;;;;;;;;;5094601;28;20200;-68
2022/03/10 02:45:05;;;;;;;82.95;17.10;;;;;;;;;;5091426;28;20296;-72
2022/03/10 02:47:32;;;;;;;88.18;18.48;;;;;;;;;;5093962;28;20672;-71
2022/03/10 02:50:00;;;;;;;83.88;17.58;;;;;;;;;;5094645;28;20295;-68
2022/03/10 02:52:27;;;;;;;83.45;16.05;;;;;;;;;;5094463;28;20259;-71
2022/03/10 02:54:54;;;;;;;88.97;16.77;;;;;;;;;;5094442;28;20208;-68
2022/03/10 02:57:22;;;;;;;82.28;15.25;;;;;;;;;;5093541;28;20200;-68
2022/03/10 02:59:49;;;;;;;88.90;16.73;;;;;;;;;;5094568;28;20637;-68
2022/03/10 03:02:17;;;;;;;80.45;15.82;;;;;;;;;;5094488;28;20741;-67
2022/03/10 03:04:44;;;;;;;83.60;17.35;;;;;;;;;;5094669;28;20200;-68
2022/03/10 03:07:11;;;;;;;77.75;16.70;;;;;;;;;;5093575;28;20616;-67
2022/03/10 03:09:38;;;;;;;79.68;15.57;;;;;;;;;;5094427;28;20204;-69
2022/03/10 03:12:06;;;;;;;85.75;17.13;;;;;;;;;;5094174;28;20307;-71
2022/03/10 03:14:34;;;;;;;79.85;17.08;;;;;;;;;;5094589;28;20231;-69
2022/03/10 03:17:01;;;;;;;83.75;17.02;;;;;;;;;;5094411;28;20318;-66
2022/03/10 03:19:29;;;;;;;82.78;17.92;;;;;;;;;;5093478;28;20291;-69
2022/03/10 03:21:56;;;;;;;85.75;15.88;;;;;;;;;;5094217;28;20204;-68
2022/03/10 03:24:24;;;;;;;85.80;14.48;;;;;;;;;;5094013;28;20611;-67
2022/03/10 03:26:51;;;;;;;78.80;15.05;;;;;;;;;;5094296;28;20228;-67
2022/03/10 03:29:18;;;;;;;82.50;14.95;;;;;;;;;;5093195;28;20212;-68
2022/03/10 03:31:47;;;;;;;82.43;15.88;;;;;;;;;;5094061;28;20593;-66
2022/03/10 03:34:14;;;;;;;85.78;17.75;;;;;;;;;;5093994;28;20708;-68
2022/03/10 03:36:42;;;;;;;92.03;17.17;;;;;;;;;;5093607;28;20235;-66
2022/03/10 03:39:09;;;;;;;78.50;16.42;;;;;;;;;;5092854;28;20286;-66
2022/03/10 03:41:36;;;;;;;84.68;17.85;;;;;;;;;;5093686;28;20675;-68
2022/03/10 03:44:04;;;;;;;86.93;15.85;;;;;;;;;;5093739;28;20682;-66
2022/03/10 03:46:31;;;;;;;79.55;15.95;;;;;;;;;;5093718;28;20577;-66
2022/03/10 03:49:00;;;;;;;81.22;16.52;;;;;;;;;;5092686;28;20235;-67
2022/03/10 03:51:27;;;;;;;84.60;15.38;;;;;;;;;;5092896;28;20235;-67
2022/03/10 03:53:54;;;;;;;80.15;16.25;;;;;;;;;;5093307;28;20200;-68
2022/03/10 03:56:22;;;;;;;84.45;16.35;;;;;;;;;;5093359;28;20228;-66
2022/03/10 03:58:49;;;;;;;85.38;17.42;;;;;;;;;;5092600;28;20212;-68
2022/03/10 04:01:16;;;;;;;82.93;17.00;;;;;;;;;;5093228;28;20208;-67
2022/03/10 04:03:43;;;;;;;84.38;16.73;;;;;;;;;;5092970;28;20295;-67
2022/03/10 04:06:12;;;;;;;82.60;15.45;;;;;;;;;;5092924;28;20228;-67
2022/03/10 04:08:39;;;;;;;80.32;14.82;;;;;;;;;;5092667;28;20291;-69
2022/03/10 04:11:06;;;;;;;83.78;16.25;;;;;;;;;;5093262;28;20204;-67
2022/03/10 04:13:33;;;;;;;82.68;15.38;;;;;;;;;;5093072;28;20228;-68
2022/03/10 04:16:00;;;;;;;80.35;15.50;;;;;;;;;;5092864;28;20232;-68
2022/03/10 04:18:27;;;;;;;79.90;16.92;;;;;;;;;;5092149;28;20230;-68
2022/03/10 04:20:56;;;;;;;85.30;17.85;;;;;;;;;;5092742;28;20878;-68
2022/03/10 04:23:25;;;;;;;75.03;14.32;;;;;;;;;;5092774;28;20257;-69
2022/03/10 04:25:52;;;;;;;78.70;14.02;;;;;;;;;;5092835;28;20247;-68
2022/03/10 04:28:19;;;;;;;74.28;12.55;;;;;;;;;;5092013;28;20215;-69
2022/03/10 04:30:47;;;;;;;80.05;13.50;;;;;;;;;;5092683;28;20210;-69
2022/03/10 04:33:14;;;;;;;77.95;14.30;;;;;;;;;;5092687;28;20224;-68
2022/03/10 04:35:42;;;;;;;83.30;16.33;;;;;;;;;;5092906;28;20232;-69
2022/03/10 04:38:10;;;;;;;78.63;14.63;;;;;;;;;;5091957;28;20204;-68
2022/03/10 04:40:39;;;;;;;76.22;14.48;;;;;;;;;;5092555;28;20254;-71
2022/03/10 04:43:06;;;;;;;81.20;15.25;;;;;;;;;;5092385;28;20212;-68
2022/03/10 04:45:33;;;;;;;77.35;14.68;;;;;;;;;;5092313;28;20262;-69
2022/03/10 04:48:02;;;;;;;75.47;14.80;;;;;;;;;;5091619;28;20582;-67
2022/03/10 04:50:31;;;;;;;78.47;14.57;;;;;;;;;;5092569;28;20204;-67
2022/03/10 04:52:58;;;;;;;76.30;14.05;;;;;;;;;;5092325;28;20313;-70
2022/03/10 04:55:25;;;;;;;80.53;13.75;;;;;;;;;;5092217;28;20231;-67
2022/03/10 04:57:54;;;;;;;73.82;13.80;;;;;;;;;;5091751;28;20210;-67
2022/03/10 05:00:22;;;;;;;78.07;14.55;;;;;;;;;;5092262;28;20301;-67
2022/03/10 05:02:49;;;;;;;78.50;13.73;;;;;;;;;;5092281;28;20196;-67
2022/03/10 05:05:18;;;;;;;78.57;14.65;;;;;;;;;;5092152;28;20311;-68
2022/03/10 05:07:45;;;;;;;77.45;15.25;;;;;;;;;;5091476;28;20208;-68
2022/03/10 05:10:13;;;;;;;74.95;14.32;;;;;;;;;;5092000;28;20208;-70
2022/03/10 05:12:47;;;;;;;81.93;16.45;;;;;;;;;;5091793;28;20313;-69
2022/03/10 05:15:18;;;;;;;75.38;14.23;;;;;;;;;;5092372;28;20311;-69
2022/03/10 05:17:45;;;;;;;79.47;14.35;;;;;;;;;;5091420;28;20212;-68
2022/03/10 05:20:12;;;;;;;75.05;13.82;;;;;;;;;;5092055;28;20208;-67
2022/03/10 05:22:43;;;;;;;73.47;12.63;;;;;;;;;;5091921;28;20196;-66
2022/03/10 05:25:10;;;;;;;74.18;13.25;;;;;;;;;;5091673;28;20677;-66
2022/03/10 05:27:37;;;;;;;77.70;14.50;;;;;;;;;;5091573;28;20204;-67
2022/03/10 05:30:05;;;;;;;75.40;13.60;;;;;;;;;;5092303;28;20211;-68
2022/03/10 05:32:34;;;;;;;81.38;13.70;;;;;;;;;;5091770;28;20220;-68
2022/03/10 05:35:02;;;;;;;73.75;14.15;;;;;;;;;;5091781;28;20210;-68
2022/03/10 05:37:29;;;;;;;77.95;15.40;;;;;;;;;;5091269;28;20212;-68
2022/03/10 05:39:57;;;;;;;76.88;12.77;;;;;;;;;;5091607;28;20640;-68
2022/03/10 05:42:24;;;;;;;84.60;15.90;;;;;;;;;;5091799;28;20200;-67
2022/03/10 05:44:51;;;;;;;78.90;14.18;;;;;;;;;;5091706;28;20203;-68
2022/03/10 05:47:18;;;;;;;85.47;15.60;;;;;;;;;;5091240;28;20204;-67
2022/03/10 05:49:46;;;;;;;76.72;13.63;;;;;;;;;;5092110;28;20720;-67
2022/03/10 05:52:14;;;;;;;79.90;13.98;;;;;;;;;;5091476;28;20331;-69
2022/03/10 05:54:41;;;;;;;79.03;14.23;;;;;;;;;;5091817;28;20290;-68
2022/03/10 05:57:08;;;;;;;75.10;14.15;;;;;;;;;;5091372;28;20311;-68
2022/03/10 05:59:36;;;;;;;76.43;14.38;;;;;;;;;;5091782;28;20211;-71
2022/03/10 06:02:03;;;;;;;75.45;14.27;;;;;;;;;;5091750;28;20215;-68
2022/03/10 06:04:30;;;;;;;99.38;15.23;;;;;;;;;;5091555;28;20334;-69
2022/03/10 06:06:59;;;;;;;74.47;14.40;;;;;;;;;;5091538;28;20224;-68
2022/03/10 06:09:26;;;;;;;76.38;13.27;;;;;;;;;;5091045;28;20212;-70
2022/03/10 06:11:53;;;;;;;79.25;14.27;;;;;;;;;;5091423;28;20295;-68
2022/03/10 06:14:20;;;;;;;74.40;13.50;;;;;;;;;;5091490;28;20584;-69
2022/03/10 06:16:47;;;;;;;77.72;13.95;;;;;;;;;;5094524;28;20666;-68
2022/03/10 06:19:15;;;;;;;72.95;13.10;;;;;;;;;;5094450;28;20728;-68
2022/03/10 06:21:43;;;;;;;77.43;13.65;;;;;;;;;;5095292;28;20204;-70
2022/03/10 06:24:12;;;;;;;72.78;13.57;;;;;;;;;;5094935;28;20234;-70
2022/03/10 06:26:40;;;;;;;81.43;12.90;;;;;;;;;;5095101;28;20315;-68
2022/03/10 06:29:08;;;;;;;80.55;14.40;;;;;;;;;;5094386;28;20592;-68
2022/03/10 06:31:35;;;;;;;75.40;13.55;;;;;;;;;;5094016;28;20243;-68
2022/03/10 06:34:02;;;;;;;74.80;12.77;;;;;;;;;;5094579;28;20581;-67
2022/03/10 06:36:29;;;;;;;73.35;12.48;;;;;;;;;;5095000;28;20314;-68
2022/03/10 06:38:57;;;;;;;74.88;13.18;;;;;;;;;;5094294;28;20204;-70
2022/03/10 06:41:26;;;;;;;76.18;13.60;;;;;;;;;;5095104;28;20204;-68
2022/03/10 06:43:53;;;;;;;75.85;14.05;;;;;;;;;;5094690;28;20687;-68
2022/03/10 06:46:20;;;;;;;77.43;14.00;;;;;;;;;;5094604;28;20231;-68
2022/03/10 06:48:47;;;;;;;75.97;12.68;;;;;;;;;;5094509;28;20291;-68
2022/03/10 06:51:15;;;;;;;76.00;12.30;;;;;;;;;;5094566;28;20676;-67
2022/03/10 06:53:42;;;;;;;79.05;14.25;;;;;;;;;;5094746;28;20790;-67
2022/03/10 06:56:09;;;;;;;71.53;12.70;;;;;;;;;;5094338;28;20709;-68
2022/03/10 06:58:37;;;;;;;77.80;12.85;;;;;;;;;;5093859;28;20200;-68
2022/03/10 07:01:04;;;;;;;72.93;12.50;;;;;;;;;;5094217;28;20299;-67
2022/03/10 07:03:32;;;;;;;75.47;13.75;;;;;;;;;;5094531;28;20197;-69
2022/03/10 07:05:59;;;;;;;81.70;12.85;;;;;;;;;;5094289;28;20250;-68
2022/03/10 07:08:27;;;;;;;71.28;13.30;;;;;;;;;;5093450;28;20216;-67
2022/03/10 07:10:54;;;;;;;75.55;13.73;;;;;;;;;;5093771;28;20243;-68
2022/03/10 07:13:21;;;;;;;77.82;13.63;;;;;;;;;;5094085;28;20226;-67
2022/03/10 07:15:49;;;;;;;74.47;13.68;;;;;;;;;;5094024;28;20708;-67
2022/03/10 07:18:17;;;;;;;75.18;13.13;;;;;;;;;;5093549;28;20204;-68
2022/03/10 07:20:44;;;;;;;72.85;12.23;;;;;;;;;;5094302;28;20588;-71
2022/03/10 07:23:11;;;;;;;81.15;16.02;;;;;;;;;;5094022;28;20228;-68
2022/03/10 07:25:38;;;;;;;73.78;12.65;;;;;;;;;;5093917;28;20223;-70
2022/03/10 07:28:06;;;;;;;73.82;12.55;;;;;;;;;;5092864;28;20212;-68
2022/03/10 07:30:33;;;;;;;72.07;12.82;;;;;;;;;;5093989;28;20262;-68
2022/03/10 07:33:01;;;;;;;75.13;14.05;;;;;;;;;;5093290;28;20220;-73
2022/03/10 07:35:28;;;;;;;77.90;14.05;;;;;;;;;;5070526;28;20634;-68
2022/03/10 07:37:58;;;;;;;70.20;12.20;;;;;;;;;;5083661;28;20279;-68
2022/03/10 07:40:25;;;;;;;74.28;12.75;;;;;;;;;;5093497;28;20244;-68
2022/03/10 07:42:54;;;;;;;81.60;13.90;;;;;;;;;;5091522;28;20212;-71
2022/03/10 07:45:22;;;;;;;72.10;12.38;;;;;;;;;;5092173;28;20232;-67
2022/03/10 07:47:49;;;;;;;73.80;12.68;;;;;;;;;;5091946;28;20676;-67
2022/03/10 07:50:17;;;;;;;70.25;11.18;;;;;;;;;;5092970;28;20299;-67
2022/03/10 07:52:44;;;;;;;76.57;12.25;;;;;;;;;;5092914;28;20553;-67
2022/03/10 07:55:13;;;;;;;73.38;12.82;;;;;;;;;;5092655;28;20228;-68
2022/03/10 07:57:41;;;;;;;72.10;11.93;;;;;;;;;;5092689;28;20208;-67
2022/03/10 08:00:09;;;;;;;72.75;12.52;;;;;;;;;;5093381;28;20210;-67
2022/03/10 08:02:36;;;;;;;75.05;12.55;;;;;;;;;;5093213;28;20204;-67
2022/03/10 08:05:03;;;;;;;72.22;11.73;;;;;;;;;;5092895;28;20204;-69
2022/03/10 08:07:34;;;;;;;72.28;12.07;;;;;;;;;;5092456;28;20204;-68
2022/03/10 08:10:01;;;;;;;71.75;12.73;;;;;;;;;;5092918;28;20212;-67
2022/03/10 08:12:29;;;;;;;71.25;12.27;;;;;;;;;;5092693;28;20204;-68
2022/03/10 08:14:56;;;;;;;70.90;12.35;;;;;;;;;;5090174;28;20224;-68
2022/03/10 08:17:23;;;;;;;72.80;12.43;;;;;;;;;;5092342;28;20200;-67
2022/03/10 08:19:50;;;;;;;73.95;13.15;;;;;;;;;;5092830;28;20291;-68
2022/03/10 08:22:18;;;;;;;70.40;11.13;;;;;;;;;;5092306;28;20204;-68
2022/03/10 08:24:47;;;;;;;70.05;10.50;;;;;;;;;;5092734;28;20204;-68
2022/03/10 08:27:15;;;;;;;70.35;12.27;;;;;;;;;;5092085;28;20250;-68
2022/03/10 08:29:42;;;;;;;78.07;12.57;;;;;;;;;;5092597;28;20212;-68
2022/03/10 08:32:09;;;;;;;72.05;12.05;;;;;;;;;;5092462;28;20211;-67
2022/03/10 08:34:36;;;;;;;72.47;12.45;;;;;;;;;;5092429;28;20224;-67
2022/03/10 08:37:05;;;;;;;79.32;12.65;;;;;;;;;;5091891;28;20254;-70
2022/03/10 08:39:33;;;;;;;74.35;12.43;;;;;;;;;;5091639;28;20210;-67
2022/03/10 08:42:01;;;;;;;73.75;13.18;;;;;;;;;;5092488;28;20205;-69
2022/03/10 08:44:28;;;;;;;70.63;11.57;;;;;;;;;;5092659;28;20606;-68
2022/03/10 08:46:56;;;;;;;75.75;11.25;;;;;;;;;;5084265;28;20220;-67
2022/03/10 08:49:23;;;;;;;71.60;11.20;;;;;;;;;;5071162;28;20208;-68
2022/03/10 08:51:50;;;;;;;70.53;10.65;;;;;;;;;;5071999;28;20296;-67
2022/03/10 08:54:17;;;;;;;68.60;10.80;;;;;;;;;;5071908;28;20274;-66
2022/03/10 08:56:44;;;;;;;76.13;13.70;;;;;;;;;;5071728;28;20231;-68
2022/03/10 08:59:13;;;;;;;72.38;11.80;;;;;;;;;;5071268;28;20215;-67
2022/03/10 09:01:40;;;;;;;73.72;12.10;;;;;;;;;;5071934;28;20205;-66
2022/03/10 09:04:07;;;;;;;70.97;11.30;;;;;;;;;;5072169;28;20566;-66
2022/03/10 09:06:34;;;;;;;74.50;11.38;;;;;;;;;;5071683;28;20727;-67
2022/03/10 09:09:02;;;;;;;74.45;12.55;;;;;;;;;;5071074;28;20201;-67
2022/03/10 09:11:30;;;;;;;74.22;12.07;;;;;;;;;;5072237;28;20209;-67
2022/03/10 09:13:59;;;;;;;78.80;12.10;;;;;;;;;;5071341;28;20290;-68
2022/03/10 09:16:28;;;;;;;71.05;11.65;;;;;;;;;;5071436;28;20256;-67
2022/03/10 09:18:55;;;;;;;74.30;12.02;;;;;;;;;;5075071;28;20287;-69
2022/03/10 09:21:22;;;;;;;69.72;10.82;;;;;;;;;;5092239;28;20295;-67
2022/03/10 09:23:49;;;;;;;70.63;11.18;;;;;;;;;;5091702;28;20203;-69
2022/03/10 09:26:17;;;;;;;71.50;11.55;;;;;;;;;;5091303;28;20224;-68
2022/03/10 09:28:45;;;;;;;69.50;10.50;;;;;;;;;;5091128;28;20212;-68
2022/03/10 09:31:12;;;;;;;69.03;11.00;;;;;;;;;;5091885;28;20216;-68
2022/03/10 09:33:42;;;;;;;70.50;11.43;;;;;;;;;;5091079;28;20243;-69
2022/03/10 09:36:09;;;;;;;69.45;10.23;;;;;;;;;;5091628;28;20230;-68
2022/03/10 09:38:36;;;;;;;70.23;10.33;;;;;;;;;;5090931;28;20242;-68
2022/03/10 09:41:03;;;;;;;70.40;9.63;;;;;;;;;;5091766;28;20454;-68
2022/03/10 09:43:33;;;;;;;69.17;9.27;;;;;;;;;;5092338;28;20531;-69
2022/03/10 09:46:00;;;;;;;67.60;9.43;;;;;;;;;;5092018;28;20493;-68
2022/03/10 09:48:28;;;;;;;68.63;10.20;;;;;;;;;;5090939;28;20898;-70
2022/03/10 09:50:56;;;;;;;67.93;9.73;;;;;;;;;;5075874;28;20828;-68
2022/03/10 09:53:23;;;;;;;65.10;8.10;;;;;;;;;;5074916;28;20489;-68
2022/03/10 09:55:51;;;;;;;64.33;6.90;;;;;;;;;;5075206;28;20883;-68
2022/03/10 09:58:18;;;;;;;67.00;7.00;;;;;;;;;;5086745;28;20811;-68
2022/03/10 10:00:45;;;;;;;61.47;6.50;;;;;;;;;;5095985;28;20452;-68
2022/03/10 10:03:12;;;;;;;63.37;6.93;;;;;;;;;;5095241;28;20442;-70
2022/03/10 10:05:40;;;;;;;63.40;6.70;;;;;;;;;;5095409;28;20462;-69
2022/03/10 10:08:10;;;;;;;65.60;7.13;;;;;;;;;;5094654;28;20446;-69
2022/03/10 10:10:39;;;;;;;62.37;6.93;;;;;;;;;;5095187;28;20445;-68
2022/03/10 10:13:07;;;;;;;64.10;6.97;;;;;;;;;;5094997;28;20453;-68
2022/03/10 10:15:37;;;;;;;63.70;7.27;;;;;;;;;;5095192;28;20549;-67
2022/03/10 10:18:06;;;;;;;61.83;5.50;;;;;;;;;;5094249;28;20530;-69
2022/03/10 10:20:33;;;;;;;64.77;6.80;;;;;;;;;;5092063;28;20523;-72
2022/03/10 10:23:15;;;;;;;62.67;6.37;;;;;;;;;;5074053;28;20450;-69
2022/03/10 10:25:50;;;;;;;61.57;5.80;;;;;;;;;;5071686;28;20570;-67
2022/03/10 10:28:23;;;;;;;63.20;5.50;;;;;;;;;;5073790;28;20465;-67
2022/03/10 10:30:54;;;;;;;60.70;5.50;;;;;;;;;;5074728;28;20493;-67
2022/03/10 10:33:21;;;;;;;65.87;5.17;;;;;;;;;;5073987;28;20448;-69
2022/03/10 10:35:48;;;;;;;60.90;5.23;;;;;;;;;;5074297;28;20468;-68
2022/03/10 10:38:28;;;;;;;61.07;5.30;;;;;;;;;;5073441;28;20941;-67
2022/03/10 10:41:10;;;;;;;60.73;4.77;;;;;;;;;;5074813;28;20450;-68
2022/03/10 10:43:42;;;;;;;60.00;4.90;;;;;;;;;;5074157;28;20987;-68
2022/03/10 10:46:10;;;;;;;62.23;5.60;;;;;;;;;;5074101;28;20505;-68
2022/03/10 10:48:47;;;;;;;61.47;5.20;;;;;;;;;;5073670;28;20466;-69
2022/03/10 10:51:14;;;;;;;60.80;4.77;;;;;;;;;;5073503;28;20450;-67
2022/03/10 10:53:42;;;;;;;62.10;5.20;;;;;;;;;;5088105;28;20478;-69
2022/03/10 10:56:09;;;;;;;61.83;5.70;;;;;;;;;;5094293;28;20476;-68
2022/03/10 10:58:39;;;;;;;60.87;5.50;;;;;;;;;;5093135;28;20453;-68
2022/03/10 11:01:07;;;;;;;61.77;5.73;;;;;;;;;;5093895;28;20483;-70
2022/03/10 11:03:37;;;;;;;60.80;5.40;;;;;;;;;;5094246;28;20531;-67
2022/03/10 11:06:04;;;;;;;62.60;4.63;;;;;;;;;;5094170;28;20466;-69
2022/03/10 11:08:31;;;;;;;60.50;5.07;;;;;;;;;;5093287;28;20442;-68
2022/03/10 11:10:58;;;;;;;59.93;4.73;;;;;;;;;;5093950;28;20453;-69
2022/03/10 11:13:26;;;;;;;60.47;5.50;;;;;;;;;;5094313;28;20504;-68
2022/03/10 11:15:54;;;;;;;60.13;4.83;;;;;;;;;;5093510;28;21000;-68
2022/03/10 11:18:24;;;;;;;62.00;5.83;;;;;;;;;;5093295;28;20453;-68
2022/03/10 11:20:52;;;;;;;61.10;4.97;;;;;;;;;;5094040;28;20960;-68
2022/03/10 11:23:23;;;;;;;59.47;4.13;;;;;;;;;;5086674;28;20447;-68
2022/03/10 11:25:53;;;;;;;60.37;4.60;;;;;;;;;;5073513;28;20546;-69
2022/03/10 11:28:22;;;;;;;60.10;4.50;;;;;;;;;;5072831;28;20835;-69
2022/03/10 11:30:51;;;;;;;62.07;4.57;;;;;;;;;;5073614;28;20534;-68
2022/03/10 11:33:19;;;;;;;59.67;4.80;;;;;;;;;;5073522;28;20497;-68
2022/03/10 11:35:48;;;;;;;61.47;4.07;;;;;;;;;;5072808;28;20581;-68
2022/03/10 11:38:15;;;;;;;61.33;4.80;;;;;;;;;;5072358;28;20448;-70
2022/03/10 11:40:47;;;;;;;59.67;4.07;;;;;;;;;;5073418;28;20525;-70
2022/03/10 11:43:18;;;;;;;59.60;4.47;;;;;;;;;;5073418;28;20464;-68
2022/03/10 11:45:46;;;;;;;60.37;4.57;;;;;;;;;;5073276;28;20550;-68
2022/03/10 11:48:28;;;;;;;60.10;4.33;;;;;;;;;;5072353;28;20458;-68
2022/03/10 11:50:57;;;;;;;63.23;4.60;;;;;;;;;;5073046;28;20470;-69
2022/03/10 11:53:24;;;;;;;60.37;4.40;;;;;;;;;;5072339;28;20450;-69
2022/03/10 11:55:53;;;;;;;61.63;4.00;;;;;;;;;;5069633;28;20599;-71
2022/03/10 11:58:21;;;;;;;60.37;4.00;;;;;;;;;;5072269;28;20451;-69
2022/03/10 12:00:50;;;;;;;59.57;4.30;;;;;;;;;;5072794;28;20447;-68
2022/03/10 12:03:21;;;;;;;63.30;5.27;;;;;;;;;;5072725;28;20505;-68
2022/03/10 12:05:52;;;;;;;59.60;4.07;;;;;;;;;;5072729;28;20547;-68
2022/03/10 12:08:21;;;;;;;60.00;4.40;;;;;;;;;;5071957;28;20958;-68
2022/03/10 12:10:48;;;;;;;62.27;4.80;;;;;;;;;;5072478;28;20824;-68
2022/03/10 12:13:23;;;;;;;60.30;4.47;;;;;;;;;;5071972;28;20959;-70
2022/03/10 12:15:50;;;;;;;61.27;4.83;;;;;;;;;;5071825;28;20491;-70
2022/03/10 12:18:18;;;;;;;59.80;4.80;;;;;;;;;;5071474;28;20450;-69
2022/03/10 12:20:46;;;;;;;60.27;4.50;;;;;;;;;;5072301;28;20450;-69
2022/03/10 12:23:15;;;;;;;60.80;4.77;;;;;;;;;;5071995;28;20489;-67
2022/03/10 12:25:44;;;;;;;60.67;4.70;;;;;;;;;;5071623;28;20517;-69
2022/03/10 12:28:12;;;;;;;63.60;4.70;;;;;;;;;;5070050;28;20459;-69
2022/03/10 12:30:41;;;;;;;61.20;4.67;;;;;;;;;;5072390;28;20443;-69
2022/03/10 12:33:08;;;;;;;61.60;5.70;;;;;;;;;;5072086;28;20527;-72
2022/03/10 12:35:36;;;;;;;61.03;5.17;;;;;;;;;;5072194;28;20810;-69
2022/03/10 12:38:04;;;;;;;61.40;5.57;;;;;;;;;;5071657;28;20497;-69
2022/03/10 12:40:32;;;;;;;61.40;5.00;;;;;;;;;;5071796;28;20942;-69
2022/03/10 12:43:01;;;;;;;61.20;4.97;;;;;;;;;;5071620;28;20439;-71
2022/03/10 12:45:29;;;;;;;60.50;4.77;;;;;;;;;;5071718;28;20491;-69
2022/03/10 12:48:00;;;;;;;60.10;5.30;;;;;;;;;;5071377;28;20459;-69
2022/03/10 12:50:28;;;;;;;60.30;4.83;;;;;;;;;;5072153;28;20964;-69
2022/03/10 12:52:56;;;;;;;60.23;4.60;;;;;;;;;;5071960;28;20543;-69
2022/03/10 12:55:26;;;;;;;62.57;5.47;;;;;;;;;;5071621;28;20566;-70
2022/03/10 12:57:58;;;;;;;59.77;4.20;;;;;;;;;;5071273;28;20465;-69
2022/03/10 13:00:26;;;;;;;59.27;4.13;;;;;;;;;;5072297;28;20447;-71
2022/03/10 13:02:57;;;;;;;61.40;5.30;;;;;;;;;;5071939;28;20454;-70
2022/03/10 13:05:24;;;;;;;60.27;4.50;;;;;;;;;;5071904;28;20998;-69
2022/03/10 13:07:51;;;;;;;61.50;4.67;;;;;;;;;;5071161;28;20943;-67
2022/03/10 13:10:20;;;;;;;61.07;5.00;;;;;;;;;;5072040;28;20453;-67
2022/03/10 13:12:48;;;;;;;61.47;5.30;;;;;;;;;;5071966;28;20538;-68
2022/03/10 13:15:20;;;;;;;63.33;5.07;;;;;;;;;;5071822;28;20854;-71
2022/03/10 13:17:49;;;;;;;60.07;5.17;;;;;;;;;;5071226;28;20443;-67
2022/03/10 13:20:17;;;;;;;60.50;4.90;;;;;;;;;;5071755;28;20530;-68
2022/03/10 13:22:47;;;;;;;60.70;5.27;;;;;;;;;;5071919;28;20817;-68
2022/03/10 13:25:16;;;;;;;60.77;5.37;;;;;;;;;;5071639;28;20487;-68
2022/03/10 13:27:43;;;;;;;59.57;4.53;;;;;;;;;;5071009;28;20449;-67
2022/03/10 13:30:17;;;;;;;61.70;5.10;;;;;;;;;;5072447;28;20458;-68
2022/03/10 13:32:44;;;;;;;61.07;4.67;;;;;;;;;;5090617;28;20454;-68
2022/03/10 13:35:13;;;;;;;60.97;5.37;;;;;;;;;;5091413;28;20450;-68
2022/03/10 13:37:40;;;;;;;62.53;5.50;;;;;;;;;;5091029;28;20449;-68
2022/03/10 13:40:08;;;;;;;59.90;5.10;;;;;;;;;;5092222;28;20438;-67
2022/03/10 13:42:36;;;;;;;61.83;5.20;;;;;;;;;;5091765;28;20449;-68
2022/03/10 13:45:04;;;;;;;61.27;5.80;;;;;;;;;;5091643;28;20539;-67
2022/03/10 13:47:46;;;;;;;60.83;5.43;;;;;;;;;;5090815;28;20552;-68
2022/03/10 13:50:17;;;;;;;62.03;5.27;;;;;;;;;;5091818;28;20870;-67
2022/03/10 13:52:44;;;;;;;61.00;5.90;;;;;;;;;;5090999;28;20638;-69
2022/03/10 13:55:12;;;;;;;61.77;5.53;;;;;;;;;;5091494;28;20965;-68
2022/03/10 13:57:39;;;;;;;61.17;5.53;;;;;;;;;;5085348;28;20457;-69
2022/03/10 14:00:07;;;;;;;60.67;5.47;;;;;;;;;;5071096;28;20450;-67
2022/03/10 14:02:34;;;;;;;61.93;5.40;;;;;;;;;;5071206;28;20520;-68
2022/03/10 14:05:11;;;;;;;61.80;5.73;;;;;;;;;;5071121;28;21021;-69
2022/03/10 14:07:40;;;;;;;61.30;5.60;;;;;;;;;;5070613;28;20875;-69
2022/03/10 14:10:08;;;;;;;61.27;6.10;;;;;;;;;;5070951;28;20470;-69
2022/03/10 14:12:35;;;;;;;61.53;6.10;;;;;;;;;;5070397;28;20554;-68
2022/03/10 14:15:02;;;;;;;63.73;5.07;;;;;;;;;;5070856;28;20974;-68
2022/03/10 14:17:42;;;;;;;61.97;5.60;;;;;;;;;;5070338;28;20451;-68
2022/03/10 14:20:10;;;;;;;60.77;5.67;;;;;;;;;;5071088;28;20533;-69
2022/03/10 14:22:37;;;;;;;61.33;5.97;;;;;;;;;;5070784;28;20829;-68
2022/03/10 14:25:06;;;;;;;62.33;6.17;;;;;;;;;;5070901;28;20870;-69
2022/03/10 14:27:42;;;;;;;61.80;6.20;;;;;;;;;;5070370;28;20797;-69
2022/03/10 14:30:12;;;;;;;61.77;5.53;;;;;;;;;;5068365;28;20501;-68
2022/03/10 14:32:41;;;;;;;61.10;5.90;;;;;;;;;;5070397;28;20445;-68